Time;durP1;ratioP1;P1;durP2;ratioP2;P2;SDS_P1;SDS_P2;PMS_P1;PMS_P2;Temp;Humidity;BMP_temperature;BMP_pressure;BME280_temperature;BME280_humidity;BME280_pressure;Samples;Min_cycle;Max_cycle;Signal;HPM_P1;HPM_P2
2023/05/01 03:01:43;;;;;;;;;;;19.60;46.70;;;;;;5376269;23;46117;-57
2023/05/01 03:04:08;;;;;;;;;;;19.70;46.90;;;;;;4950461;28;46443;-58
2023/05/01 03:06:34;;;;;;;;;;;19.60;46.80;;;;;;4969084;28;46652;-58
2023/05/01 03:08:59;;;;;;;;;;;19.70;46.90;;;;;;4954303;28;45555;-58
2023/05/01 03:11:25;;;;;;;;;;;19.70;46.90;;;;;;4949984;28;45416;-57
2023/05/01 03:13:51;;;;;;;;;;;19.60;47.50;;;;;;4972153;28;45112;-57
2023/05/01 03:16:16;;;;;;;;;;;19.60;46.90;;;;;;4943716;28;45293;-57
2023/05/01 03:18:42;;;;;;;;;;;19.60;46.90;;;;;;4962281;28;44673;-59
2023/05/01 03:21:07;;;;;;;;;;;19.60;46.90;;;;;;4950168;28;45067;-58
2023/05/01 03:23:33;;;;;;;;;;;19.60;46.90;;;;;;4958450;28;45242;-57
2023/05/01 03:25:58;;;;;;;;;;;19.60;47.00;;;;;;4971772;28;45982;-58
2023/05/01 03:28:24;;;;;;;;;;;19.60;46.90;;;;;;4964492;28;45277;-57
2023/05/01 03:30:50;;;;;;;;;;;19.70;47.00;;;;;;4937641;28;45257;-58
2023/05/01 03:33:16;;;;;;;;;;;19.60;47.00;;;;;;4966303;28;45149;-60
2023/05/01 03:35:41;;;;;;;;;;;19.60;47.00;;;;;;4967800;28;45945;-58
2023/05/01 03:38:07;;;;;;;;;;;19.60;47.00;;;;;;4966422;28;45407;-57
2023/05/01 03:40:33;;;;;;;;;;;19.60;47.10;;;;;;4942618;28;44790;-55
2023/05/01 03:42:58;;;;;;;;;;;19.60;47.00;;;;;;4945278;28;44753;-58
2023/05/01 03:45:24;;;;;;;;;;;19.60;47.10;;;;;;4943468;28;45940;-57
2023/05/01 03:47:49;;;;;;;;;;;19.60;47.10;;;;;;4972528;28;45079;-58
2023/05/01 03:50:15;;;;;;;;;;;19.60;47.10;;;;;;4952909;28;44698;-58
2023/05/01 03:52:40;;;;;;;;;;;19.60;47.10;;;;;;4971041;28;44693;-58
2023/05/01 03:55:06;;;;;;;;;;;19.60;47.10;;;;;;4951254;28;46826;-61
2023/05/01 03:57:32;;;;;;;;;;;19.60;47.20;;;;;;4975339;28;45143;-57
2023/05/01 03:59:58;;;;;;;;;;;19.60;47.10;;;;;;4968049;28;45259;-59
2023/05/01 04:02:23;;;;;;;;;;;19.60;47.20;;;;;;4956820;28;45668;-58
2023/05/01 04:04:49;;;;;;;;;;;19.60;47.20;;;;;;4961847;28;46139;-58
2023/05/01 04:07:15;;;;;;;;;;;19.60;47.20;;;;;;4969876;28;46125;-57
2023/05/01 04:09:40;;;;;;;;;;;19.60;47.20;;;;;;4964026;28;45599;-57
2023/05/01 04:12:09;;;;;;;;;;;19.60;47.20;;;;;;4949402;28;45553;-59
2023/05/01 04:14:34;;;;;;;;;;;19.50;47.30;;;;;;4961982;28;45253;-58
2023/05/01 04:17:00;;;;;;;;;;;19.50;47.30;;;;;;4965340;28;45085;-58
2023/05/01 04:19:26;;;;;;;;;;;19.60;47.30;;;;;;4953838;28;45285;-57
2023/05/01 04:21:51;;;;;;;;;;;19.50;47.30;;;;;;4965048;28;45438;-58
2023/05/01 04:24:17;;;;;;;;;;;19.50;47.30;;;;;;4937819;28;48303;-57
2023/05/01 04:26:42;;;;;;;;;;;19.50;47.30;;;;;;4970668;28;45475;-58
2023/05/01 04:29:08;;;;;;;;;;;19.50;47.30;;;;;;4959742;28;45286;-58
2023/05/01 04:31:33;;;;;;;;;;;19.50;47.40;;;;;;4962516;28;45018;-58
2023/05/01 04:33:59;;;;;;;;;;;19.50;47.40;;;;;;4964152;28;47120;-58
2023/05/01 04:36:25;;;;;;;;;;;19.50;47.40;;;;;;4950998;28;44728;-58
2023/05/01 04:38:50;;;;;;;;;;;19.50;47.40;;;;;;4956500;28;45672;-61
2023/05/01 04:41:16;;;;;;;;;;;19.50;47.40;;;;;;4931498;28;45208;-57
2023/05/01 04:43:41;;;;;;;;;;;19.50;47.40;;;;;;4941528;28;46919;-58
2023/05/01 04:46:07;;;;;;;;;;;19.50;47.40;;;;;;4932830;28;45386;-61
2023/05/01 04:48:32;;;;;;;;;;;19.50;47.40;;;;;;4968487;28;45148;-59
2023/05/01 04:50:58;;;;;;;;;;;19.50;47.50;;;;;;4966014;28;45681;-61
2023/05/01 04:53:23;;;;;;;;;;;19.50;47.50;;;;;;4970215;28;45584;-58
2023/05/01 04:55:49;;;;;;;;;;;19.50;47.50;;;;;;4966796;28;44907;-59
2023/05/01 04:58:14;;;;;;;;;;;19.50;47.50;;;;;;4971287;28;45096;-58
2023/05/01 05:00:40;;;;;;;;;;;19.50;47.50;;;;;;4960471;28;46135;-61
2023/05/01 05:03:06;;;;;;;;;;;19.50;47.50;;;;;;4967378;28;45206;-59
2023/05/01 05:05:31;;;;;;;;;;;19.50;48.10;;;;;;4960783;28;45416;-59
2023/05/01 05:07:57;;;;;;;;;;;19.50;47.50;;;;;;4970075;28;44814;-59
2023/05/01 05:10:22;;;;;;;;;;;19.50;47.50;;;;;;4960427;28;45282;-59
2023/05/01 05:12:48;;;;;;;;;;;19.50;47.50;;;;;;4959999;28;45933;-59
2023/05/01 05:15:13;;;;;;;;;;;19.50;47.60;;;;;;4960756;28;45369;-59
2023/05/01 05:17:39;;;;;;;;;;;19.50;47.50;;;;;;4947348;28;45882;-59
2023/05/01 05:20:05;;;;;;;;;;;19.50;47.50;;;;;;4967494;28;45339;-59
2023/05/01 05:22:30;;;;;;;;;;;19.60;47.40;;;;;;4971685;28;45885;-59
2023/05/01 05:24:58;;;;;;;;;;;19.50;47.40;;;;;;4969986;28;45320;-59
2023/05/01 05:27:24;;;;;;;;;;;19.60;47.30;;;;;;4945312;28;45621;-60
2023/05/01 05:29:50;;;;;;;;;;;19.70;47.10;;;;;;4970133;28;45706;-59
2023/05/01 05:32:15;;;;;;;;;;;19.70;47.20;;;;;;4957452;28;46121;-59
2023/05/01 05:34:41;;;;;;;;;;;19.60;47.20;;;;;;4957126;28;45910;-59
2023/05/01 05:37:07;;;;;;;;;;;19.60;47.20;;;;;;4944411;28;45142;-59
2023/05/01 05:39:32;;;;;;;;;;;19.60;47.30;;;;;;4951845;28;45684;-59
2023/05/01 05:41:58;;;;;;;;;;;19.60;47.40;;;;;;4963495;28;45081;-59
2023/05/01 05:44:24;;;;;;;;;;;19.60;47.40;;;;;;4970851;28;46315;-59
2023/05/01 05:46:49;;;;;;;;;;;19.60;47.50;;;;;;4936320;28;44968;-58
2023/05/01 05:49:15;;;;;;;;;;;19.50;47.40;;;;;;4962763;28;44667;-58
2023/05/01 05:51:40;;;;;;;;;;;19.50;47.40;;;;;;4965113;28;46116;-58
2023/05/01 05:54:06;;;;;;;;;;;19.50;47.50;;;;;;4950342;28;45405;-58
2023/05/01 05:56:31;;;;;;;;;;;19.50;47.50;;;;;;4942277;28;44794;-59
2023/05/01 05:58:57;;;;;;;;;;;19.50;47.50;;;;;;4963807;28;45311;-62
2023/05/01 06:01:22;;;;;;;;;;;19.50;47.60;;;;;;4941033;28;45952;-59
2023/05/01 06:03:48;;;;;;;;;;;19.50;47.60;;;;;;4968627;28;45688;-59
2023/05/01 06:06:14;;;;;;;;;;;19.50;47.60;;;;;;4963480;28;45592;-60
2023/05/01 06:08:39;;;;;;;;;;;19.50;47.50;;;;;;4964173;28;45547;-58
2023/05/01 06:11:06;;;;;;;;;;;19.50;47.60;;;;;;4963504;28;45825;-59
2023/05/01 06:13:32;;;;;;;;;;;19.50;47.60;;;;;;4963190;28;45358;-59
2023/05/01 06:15:57;;;;;;;;;;;19.50;47.50;;;;;;4929404;28;45458;-59
2023/05/01 06:18:23;;;;;;;;;;;19.50;47.50;;;;;;4945246;28;45534;-58
2023/05/01 06:20:48;;;;;;;;;;;19.50;47.60;;;;;;4948778;28;46186;-62
2023/05/01 06:23:14;;;;;;;;;;;19.50;47.60;;;;;;4969968;28;45359;-60
2023/05/01 06:25:39;;;;;;;;;;;19.50;47.60;;;;;;4951257;28;45357;-58
2023/05/01 06:28:05;;;;;;;;;;;19.50;48.20;;;;;;4944279;28;45670;-59
2023/05/01 06:30:30;;;;;;;;;;;19.60;47.60;;;;;;4941268;28;45819;-59
2023/05/01 06:32:56;;;;;;;;;;;19.50;47.50;;;;;;4950083;28;45826;-58
2023/05/01 06:35:21;;;;;;;;;;;19.50;47.60;;;;;;4965451;28;45468;-59
2023/05/01 06:37:47;;;;;;;;;;;19.50;47.60;;;;;;4963893;28;45537;-59
2023/05/01 06:40:12;;;;;;;;;;;19.50;47.70;;;;;;4964259;28;45872;-60
2023/05/01 06:42:38;;;;;;;;;;;19.50;47.70;;;;;;4918411;28;45397;-59
2023/05/01 06:45:04;;;;;;;;;;;19.50;47.70;;;;;;4964373;28;46185;-60
2023/05/01 06:47:30;;;;;;;;;;;19.50;47.70;;;;;;4957816;28;45259;-58
2023/05/01 06:49:55;;;;;;;;;;;19.60;47.70;;;;;;4960712;28;45293;-58
2023/05/01 06:52:21;;;;;;;;;;;19.60;47.70;;;;;;4957241;28;45492;-57
2023/05/01 06:54:46;;;;;;;;;;;19.50;47.60;;;;;;4965735;28;45309;-59
2023/05/01 06:57:12;;;;;;;;;;;19.60;47.60;;;;;;4941821;28;44928;-61
2023/05/01 06:59:37;;;;;;;;;;;19.60;47.60;;;;;;4965019;28;45692;-58
2023/05/01 07:02:03;;;;;;;;;;;19.60;47.60;;;;;;4935430;28;45546;-57
2023/05/01 07:04:30;;;;;;;;;;;19.60;47.60;;;;;;4953075;28;49226;-56
2023/05/01 07:06:55;;;;;;;;;;;19.60;47.60;;;;;;4959640;28;45268;-55
2023/05/01 07:09:21;;;;;;;;;;;19.60;47.60;;;;;;4968382;28;46725;-59
2023/05/01 07:11:46;;;;;;;;;;;19.60;47.60;;;;;;4956461;28;45249;-58
2023/05/01 07:14:12;;;;;;;;;;;19.60;47.60;;;;;;4944475;28;45249;-58
2023/05/01 07:16:37;;;;;;;;;;;19.60;47.60;;;;;;4953383;28;45597;-58
2023/05/01 07:19:03;;;;;;;;;;;19.60;47.60;;;;;;4962348;28;46454;-58
2023/05/01 07:21:28;;;;;;;;;;;19.70;47.60;;;;;;4949773;28;45450;-59
2023/05/01 07:23:54;;;;;;;;;;;19.60;47.50;;;;;;4966211;28;45174;-57
2023/05/01 07:26:20;;;;;;;;;;;19.70;47.50;;;;;;4960152;28;44765;-57
2023/05/01 07:28:45;;;;;;;;;;;19.70;47.50;;;;;;4967288;28;45589;-59
2023/05/01 07:31:11;;;;;;;;;;;19.70;47.50;;;;;;4949515;28;46740;-56
2023/05/01 07:33:36;;;;;;;;;;;19.60;47.50;;;;;;4947903;28;45210;-58
2023/05/01 07:36:03;;;;;;;;;;;19.70;47.50;;;;;;4959815;28;45473;-59
2023/05/01 07:38:29;;;;;;;;;;;19.70;47.50;;;;;;4950264;28;46229;-57
2023/05/01 07:40:55;;;;;;;;;;;19.70;47.50;;;;;;4960170;28;45633;-58
2023/05/01 07:43:21;;;;;;;;;;;19.70;47.50;;;;;;4945422;28;45282;-58
2023/05/01 07:45:53;;;;;;;;;;;19.70;47.50;;;;;;4949650;28;45495;-58
2023/05/01 07:48:19;;;;;;;;;;;19.70;47.50;;;;;;4961249;28;46168;-58
2023/05/01 07:50:44;;;;;;;;;;;19.70;47.50;;;;;;4958258;28;45265;-58
2023/05/01 07:53:10;;;;;;;;;;;19.80;47.50;;;;;;4965836;28;45235;-58
2023/05/01 07:55:36;;;;;;;;;;;19.70;47.50;;;;;;4963558;28;45237;-59
2023/05/01 07:58:02;;;;;;;;;;;19.80;47.50;;;;;;4967148;28;46059;-58
2023/05/01 08:00:27;;;;;;;;;;;19.80;47.40;;;;;;4960996;28;45562;-58
2023/05/01 08:02:53;;;;;;;;;;;19.80;47.40;;;;;;4943101;28;45259;-58
2023/05/01 08:05:18;;;;;;;;;;;19.80;47.40;;;;;;4962185;28;45130;-58
2023/05/01 08:07:44;;;;;;;;;;;19.70;47.40;;;;;;4945173;28;45292;-58
2023/05/01 08:10:10;;;;;;;;;;;19.80;47.50;;;;;;4961934;28;44739;-58
2023/05/01 08:12:35;;;;;;;;;;;19.80;47.40;;;;;;4947443;28;45604;-60
2023/05/01 08:15:01;;;;;;;;;;;19.80;47.50;;;;;;4964321;28;45380;-58
2023/05/01 08:17:26;;;;;;;;;;;19.80;47.40;;;;;;4944699;28;46435;-59
2023/05/01 08:19:55;;;;;;;;;;;19.80;47.40;;;;;;4964823;28;44758;-58
2023/05/01 08:22:21;;;;;;;;;;;19.80;47.40;;;;;;4960148;28;45322;-57
2023/05/01 08:24:46;;;;;;;;;;;19.80;47.40;;;;;;4960540;28;45538;-59
2023/05/01 08:27:12;;;;;;;;;;;19.80;47.40;;;;;;4937649;28;46143;-58
2023/05/01 08:29:37;;;;;;;;;;;19.80;47.40;;;;;;4965294;28;44972;-58
2023/05/01 08:32:03;;;;;;;;;;;19.90;47.40;;;;;;4963006;28;45194;-58
2023/05/01 08:34:28;;;;;;;;;;;19.80;47.30;;;;;;4967292;28;45381;-59
2023/05/01 08:36:54;;;;;;;;;;;19.90;47.40;;;;;;4952492;28;45745;-58
2023/05/01 08:39:19;;;;;;;;;;;19.90;47.40;;;;;;4949766;28;45430;-58
2023/05/01 08:41:45;;;;;;;;;;;19.90;47.30;;;;;;4949359;28;45289;-57
2023/05/01 08:44:12;;;;;;;;;;;19.90;47.40;;;;;;4944212;28;45233;-59
2023/05/01 08:46:40;;;;;;;;;;;19.90;47.30;;;;;;4938635;28;45467;-58
2023/05/01 08:49:06;;;;;;;;;;;19.90;47.30;;;;;;4970603;28;44657;-58
2023/05/01 08:51:32;;;;;;;;;;;19.90;47.30;;;;;;4943392;28;45381;-58
2023/05/01 08:53:58;;;;;;;;;;;20.00;47.30;;;;;;4954745;28;45107;-59
2023/05/01 08:56:23;;;;;;;;;;;20.00;47.30;;;;;;4962510;28;45398;-59
2023/05/01 08:58:49;;;;;;;;;;;20.00;47.30;;;;;;4950918;28;45353;-58
2023/05/01 09:01:15;;;;;;;;;;;20.00;47.30;;;;;;4961125;28;45231;-61
2023/05/01 09:03:43;;;;;;;;;;;20.00;47.30;;;;;;4948119;28;45112;-57
2023/05/01 09:06:09;;;;;;;;;;;20.00;47.30;;;;;;4958062;28;46309;-58
2023/05/01 09:08:34;;;;;;;;;;;20.00;47.30;;;;;;4949542;28;45289;-56
2023/05/01 09:11:00;;;;;;;;;;;20.00;47.30;;;;;;4946462;28;45128;-56
2023/05/01 09:13:25;;;;;;;;;;;20.00;47.30;;;;;;4948099;28;45596;-58
2023/05/01 09:15:51;;;;;;;;;;;20.00;47.30;;;;;;4964456;28;47013;-60
2023/05/01 09:18:16;;;;;;;;;;;20.00;47.30;;;;;;4948568;28;46036;-62
2023/05/01 09:20:42;;;;;;;;;;;20.00;47.30;;;;;;4965924;28;44662;-58
2023/05/01 09:23:07;;;;;;;;;;;20.00;47.30;;;;;;4970183;28;45052;-58
2023/05/01 09:25:33;;;;;;;;;;;20.00;47.30;;;;;;4944066;28;46491;-57
2023/05/01 09:27:58;;;;;;;;;;;20.00;47.30;;;;;;4947561;28;45460;-57
2023/05/01 09:30:30;;;;;;;;;;;20.00;47.30;;;;;;4964810;28;45449;-58
2023/05/01 09:33:09;;;;;;;;;;;20.00;47.30;;;;;;4948771;28;44652;-55
2023/05/01 09:35:54;;;;;;;;;;;20.00;47.30;;;;;;4939259;28;47208;-60
2023/05/01 09:38:20;;;;;;;;;;;20.00;47.40;;;;;;4961211;28;45567;-58
2023/05/01 09:40:45;;;;;;;;;;;20.00;47.30;;;;;;4961359;28;45185;-58
2023/05/01 09:43:11;;;;;;;;;;;20.00;47.30;;;;;;4936056;28;45259;-59
2023/05/01 09:45:38;;;;;;;;;;;20.00;47.30;;;;;;4936760;28;45199;-59
2023/05/01 09:48:10;;;;;;;;;;;20.10;47.40;;;;;;4968170;28;45237;-58
2023/05/01 09:50:35;;;;;;;;;;;20.00;47.30;;;;;;4960280;28;45387;-59
2023/05/01 09:53:03;;;;;;;;;;;20.00;47.40;;;;;;4969082;28;45526;-57
2023/05/01 09:55:29;;;;;;;;;;;20.00;47.30;;;;;;4943454;28;45461;-58
2023/05/01 09:57:54;;;;;;;;;;;20.00;47.40;;;;;;4938143;28;45243;-59
2023/05/01 10:00:20;;;;;;;;;;;20.00;47.40;;;;;;4960467;28;45439;-58
2023/05/01 10:02:46;;;;;;;;;;;20.00;47.40;;;;;;4963454;28;45325;-62
2023/05/01 10:05:12;;;;;;;;;;;20.00;47.40;;;;;;4947581;28;45945;-61
2023/05/01 10:07:38;;;;;;;;;;;20.00;47.40;;;;;;4949530;28;45330;-58
2023/05/01 10:10:16;;;;;;;;;;;20.00;47.40;;;;;;4965781;28;45372;-61
2023/05/01 10:12:41;;;;;;;;;;;20.00;47.50;;;;;;4969563;28;44793;-57
2023/05/01 10:15:07;;;;;;;;;;;20.00;47.40;;;;;;4963136;28;45039;-63
2023/05/01 10:17:32;;;;;;;;;;;20.10;48.00;;;;;;4944888;28;44738;-58
2023/05/01 10:19:58;;;;;;;;;;;20.00;47.40;;;;;;4952268;28;45424;-58
2023/05/01 10:22:25;;;;;;;;;;;20.00;47.50;;;;;;4967664;28;45914;-58
2023/05/01 10:24:51;;;;;;;;;;;20.00;47.40;;;;;;4967155;28;45344;-58
2023/05/01 10:27:16;;;;;;;;;;;20.00;47.50;;;;;;4943719;28;45677;-58
2023/05/01 10:29:42;;;;;;;;;;;20.00;47.50;;;;;;4969035;28;45569;-59
2023/05/01 10:32:07;;;;;;;;;;;20.00;47.50;;;;;;4937270;28;45689;-58
2023/05/01 10:34:33;;;;;;;;;;;20.00;47.50;;;;;;4947067;28;45280;-64
2023/05/01 10:36:59;;;;;;;;;;;20.00;47.50;;;;;;4960439;28;45405;-58
2023/05/01 10:39:31;;;;;;;;;;;20.00;47.50;;;;;;4969949;28;45523;-59
2023/05/01 10:41:57;;;;;;;;;;;20.10;47.60;;;;;;4960640;28;45129;-60
2023/05/01 10:44:23;;;;;;;;;;;20.10;47.50;;;;;;4969968;28;45511;-58
2023/05/01 10:46:48;;;;;;;;;;;20.00;47.50;;;;;;4955390;28;45068;-58
2023/05/01 10:49:14;;;;;;;;;;;20.00;47.50;;;;;;4966935;28;45313;-59
2023/05/01 10:52:12;;;;;;;;;;;20.00;47.60;;;;;;4963063;28;45361;-59
2023/05/01 10:54:38;;;;;;;;;;;20.00;47.50;;;;;;4931088;28;46377;-59
2023/05/01 10:57:04;;;;;;;;;;;20.00;47.60;;;;;;4958768;28;45684;-59
2023/05/01 10:59:49;;;;;;;;;;;20.00;47.60;;;;;;4944719;28;47153;-58
2023/05/01 11:02:20;;;;;;;;;;;20.00;47.60;;;;;;4953386;28;45666;-58
2023/05/01 11:04:47;;;;;;;;;;;20.00;47.60;;;;;;4946626;28;46184;-57
2023/05/01 11:07:13;;;;;;;;;;;20.00;47.60;;;;;;4958826;28;45432;-59
2023/05/01 11:09:46;;;;;;;;;;;20.00;47.70;;;;;;4965428;28;45649;-59
2023/05/01 11:12:15;;;;;;;;;;;20.00;48.30;;;;;;4963256;28;45442;-59
2023/05/01 11:14:53;;;;;;;;;;;20.10;47.70;;;;;;4968076;28;45288;-59
2023/05/01 11:17:37;;;;;;;;;;;20.00;47.60;;;;;;4960386;28;45186;-58
2023/05/01 11:20:03;;;;;;;;;;;20.00;47.70;;;;;;4950022;28;45594;-59
2023/05/01 11:22:29;;;;;;;;;;;20.00;47.70;;;;;;4945812;28;45260;-59
2023/05/01 11:24:55;;;;;;;;;;;20.00;47.70;;;;;;4967816;28;45228;-60
2023/05/01 11:27:20;;;;;;;;;;;20.00;47.70;;;;;;4946454;28;45173;-61
2023/05/01 11:29:47;;;;;;;;;;;20.00;47.70;;;;;;4946082;28;45479;-59
2023/05/01 11:32:17;;;;;;;;;;;20.00;48.30;;;;;;4936187;28;45287;-61
2023/05/01 11:34:42;;;;;;;;;;;20.00;47.70;;;;;;4937929;28;46898;-58
2023/05/01 11:37:08;;;;;;;;;;;20.00;47.70;;;;;;4943526;28;45724;-59
2023/05/01 11:39:33;;;;;;;;;;;20.00;47.70;;;;;;4946927;28;45320;-59
2023/05/01 11:42:05;;;;;;;;;;;20.00;47.80;;;;;;4962165;28;45210;-60
2023/05/01 11:44:31;;;;;;;;;;;20.00;47.70;;;;;;4932503;28;46054;-59
2023/05/01 11:46:56;;;;;;;;;;;20.00;47.70;;;;;;4954003;28;45419;-58
2023/05/01 11:49:25;;;;;;;;;;;20.00;47.70;;;;;;4949321;28;45335;-61
2023/05/01 11:51:55;;;;;;;;;;;20.00;47.80;;;;;;4963214;28;45463;-59
2023/05/01 11:54:20;;;;;;;;;;;20.00;47.70;;;;;;4950306;28;46157;-59
2023/05/01 11:56:46;;;;;;;;;;;20.00;47.70;;;;;;4960186;28;45666;-59
2023/05/01 11:59:12;;;;;;;;;;;20.00;47.80;;;;;;4968565;28;45523;-59
2023/05/01 12:01:38;;;;;;;;;;;20.00;47.70;;;;;;4937032;28;45789;-59
2023/05/01 12:04:04;;;;;;;;;;;20.00;47.80;;;;;;4934095;28;46055;-60
2023/05/01 12:06:42;;;;;;;;;;;20.00;47.80;;;;;;4964884;28;44681;-59
2023/05/01 12:09:09;;;;;;;;;;;20.00;47.80;;;;;;4969756;28;45220;-60
2023/05/01 12:11:34;;;;;;;;;;;20.00;47.80;;;;;;4944481;28;45764;-60
2023/05/01 12:14:00;;;;;;;;;;;20.00;47.80;;;;;;4954415;28;45208;-60
2023/05/01 12:16:27;;;;;;;;;;;20.00;47.90;;;;;;4963627;28;45129;-59
2023/05/01 12:18:52;;;;;;;;;;;20.00;47.90;;;;;;4947045;28;46297;-61
2023/05/01 12:21:18;;;;;;;;;;;20.00;47.90;;;;;;4944370;28;45457;-58
2023/05/01 12:23:44;;;;;;;;;;;20.00;47.90;;;;;;4971019;28;46036;-59
2023/05/01 12:26:24;;;;;;;;;;;20.00;47.80;;;;;;4961873;28;45487;-59
2023/05/01 12:28:57;;;;;;;;;;;20.00;47.80;;;;;;4949702;28;45002;-59
2023/05/01 12:31:22;;;;;;;;;;;20.00;47.90;;;;;;4957343;28;45445;-55
2023/05/01 12:33:55;;;;;;;;;;;20.00;47.90;;;;;;4952075;28;45607;-60
2023/05/01 12:36:24;;;;;;;;;;;20.00;47.90;;;;;;4963580;28;45637;-58
2023/05/01 12:38:59;;;;;;;;;;;20.00;47.90;;;;;;4969475;28;45256;-59
2023/05/01 12:41:45;;;;;;;;;;;20.00;47.90;;;;;;4956619;28;45804;-60
2023/05/01 12:44:29;;;;;;;;;;;20.00;47.90;;;;;;4973338;28;46161;-57
2023/05/01 12:46:57;;;;;;;;;;;20.10;48.00;;;;;;4962438;28;45926;-58
2023/05/01 12:49:22;;;;;;;;;;;20.00;47.90;;;;;;4951635;28;45698;-57
2023/05/01 12:51:48;;;;;;;;;;;20.00;48.00;;;;;;4944330;28;45280;-58
2023/05/01 12:54:20;;;;;;;;;;;20.00;48.00;;;;;;4966666;28;45743;-58
2023/05/01 12:56:46;;;;;;;;;;;20.00;48.00;;;;;;4965709;28;46517;-59
2023/05/01 12:59:25;;;;;;;;;;;20.00;48.00;;;;;;4955241;28;44726;-57
2023/05/01 13:02:01;;;;;;;;;;;20.00;48.00;;;;;;4935930;28;45311;-58
2023/05/01 13:04:26;;;;;;;;;;;20.00;48.00;;;;;;4970955;28;45409;-59
2023/05/01 13:06:54;;;;;;;;;;;20.00;48.00;;;;;;4964718;28;45021;-58
2023/05/01 13:09:23;;;;;;;;;;;20.00;48.00;;;;;;4954020;28;46513;-58
2023/05/01 13:12:01;;;;;;;;;;;20.00;48.00;;;;;;4944371;28;44864;-57
2023/05/01 13:14:47;;;;;;;;;;;20.00;48.10;;;;;;4965612;28;45483;-58
2023/05/01 13:17:12;;;;;;;;;;;20.00;48.10;;;;;;4955563;28;45869;-60
2023/05/01 13:19:38;;;;;;;;;;;20.00;48.10;;;;;;4949812;28;45158;-58
2023/05/01 13:22:04;;;;;;;;;;;20.00;48.10;;;;;;4942877;28;45515;-60
2023/05/01 13:24:35;;;;;;;;;;;20.00;48.10;;;;;;4964754;28;46867;-58
2023/05/01 13:27:01;;;;;;;;;;;20.00;48.10;;;;;;4960925;28;44699;-58
2023/05/01 13:29:27;;;;;;;;;;;20.00;48.10;;;;;;4972855;28;46027;-62
2023/05/01 13:31:52;;;;;;;;;;;20.00;48.10;;;;;;4923591;28;45769;-57
2023/05/01 13:34:23;;;;;;;;;;;20.00;48.10;;;;;;4968630;28;46202;-58
2023/05/01 13:36:49;;;;;;;;;;;20.00;48.10;;;;;;4961322;28;45604;-56
2023/05/01 13:39:17;;;;;;;;;;;20.00;48.20;;;;;;4967728;28;45564;-58
2023/05/01 13:41:43;;;;;;;;;;;20.00;48.10;;;;;;4945188;28;45493;-58
2023/05/01 13:44:08;;;;;;;;;;;20.00;48.10;;;;;;4970138;28;45842;-58
2023/05/01 13:46:34;;;;;;;;;;;20.00;48.20;;;;;;4956839;28;45340;-57
2023/05/01 13:48:59;;;;;;;;;;;20.00;48.20;;;;;;4936074;28;45445;-58
2023/05/01 13:51:25;;;;;;;;;;;20.00;48.20;;;;;;4948156;28;45269;-59
2023/05/01 13:53:51;;;;;;;;;;;20.00;48.60;;;;;;4946915;28;46824;-57
2023/05/01 13:56:17;;;;;;;;;;;20.00;48.20;;;;;;4964687;28;45592;-59
2023/05/01 13:58:43;;;;;;;;;;;20.00;48.20;;;;;;4949404;28;45522;-59
2023/05/01 14:01:13;;;;;;;;;;;20.00;48.20;;;;;;4960027;28;44732;-58
2023/05/01 14:03:39;;;;;;;;;;;20.00;48.20;;;;;;4967392;28;45419;-57
2023/05/01 14:06:07;;;;;;;;;;;20.00;48.20;;;;;;4941218;28;45390;-58
2023/05/01 14:08:33;;;;;;;;;;;20.00;48.20;;;;;;4944587;28;45241;-57
2023/05/01 14:10:58;;;;;;;;;;;20.00;48.20;;;;;;4962359;28;45554;-59
2023/05/01 14:13:25;;;;;;;;;;;20.00;48.30;;;;;;4966452;28;46232;-60
2023/05/01 14:15:50;;;;;;;;;;;20.00;48.30;;;;;;4938967;28;44982;-58
2023/05/01 14:18:19;;;;;;;;;;;20.00;48.20;;;;;;4970212;28;45085;-61
2023/05/01 14:20:46;;;;;;;;;;;20.00;48.30;;;;;;4930218;28;45727;-59
2023/05/01 14:23:13;;;;;;;;;;;20.00;48.30;;;;;;4958569;28;45968;-58
2023/05/01 14:25:39;;;;;;;;;;;20.00;48.20;;;;;;4959628;28;45121;-59
2023/05/01 14:28:04;;;;;;;;;;;20.00;48.20;;;;;;4946827;28;45706;-59
2023/05/01 14:30:36;;;;;;;;;;;20.00;48.20;;;;;;4942783;28;45950;-59
2023/05/01 14:33:02;;;;;;;;;;;20.00;48.30;;;;;;4963281;28;46063;-59
2023/05/01 14:35:27;;;;;;;;;;;20.00;48.30;;;;;;4962804;28;45743;-60
2023/05/01 14:37:53;;;;;;;;;;;20.00;48.30;;;;;;4969546;28;45324;-58
2023/05/01 14:40:23;;;;;;;;;;;20.00;48.30;;;;;;4946779;28;46753;-60
2023/05/01 14:42:49;;;;;;;;;;;20.00;48.30;;;;;;4951451;28;45978;-59
2023/05/01 14:45:16;;;;;;;;;;;20.00;48.30;;;;;;4950806;28;45313;-59
2023/05/01 14:47:45;;;;;;;;;;;20.00;48.30;;;;;;4947241;28;45546;-58
2023/05/01 14:50:13;;;;;;;;;;;20.00;48.30;;;;;;4942423;28;46050;-57
2023/05/01 14:52:39;;;;;;;;;;;20.00;48.30;;;;;;4965454;28;46168;-59
2023/05/01 14:55:05;;;;;;;;;;;20.00;48.30;;;;;;4959721;28;46081;-57
2023/05/01 14:57:30;;;;;;;;;;;20.00;48.30;;;;;;4958028;28;44750;-59
2023/05/01 14:59:56;;;;;;;;;;;20.00;48.30;;;;;;4963556;28;45942;-59
2023/05/01 15:02:22;;;;;;;;;;;20.00;48.30;;;;;;4957282;28;45521;-58
2023/05/01 15:04:47;;;;;;;;;;;20.00;48.40;;;;;;4951919;28;45455;-59
2023/05/01 15:07:14;;;;;;;;;;;20.00;48.30;;;;;;4956065;28;46221;-59
2023/05/01 15:09:42;;;;;;;;;;;20.00;48.40;;;;;;4963387;28;45114;-60
2023/05/01 15:12:08;;;;;;;;;;;20.00;48.30;;;;;;4962959;28;46144;-59
2023/05/01 15:14:34;;;;;;;;;;;20.00;48.30;;;;;;4950093;28;45412;-58
2023/05/01 15:16:59;;;;;;;;;;;20.00;48.30;;;;;;4958749;28;45336;-56
2023/05/01 15:19:25;;;;;;;;;;;20.00;48.40;;;;;;4949238;28;45449;-59
2023/05/01 15:21:50;;;;;;;;;;;20.00;48.40;;;;;;4938857;28;46151;-58
2023/05/01 15:24:18;;;;;;;;;;;20.00;49.00;;;;;;4952150;28;44639;-59
2023/05/01 15:26:44;;;;;;;;;;;20.00;48.40;;;;;;4961979;28;45563;-60
2023/05/01 15:29:09;;;;;;;;;;;20.00;48.40;;;;;;4946015;28;45026;-58
2023/05/01 15:31:35;;;;;;;;;;;20.00;48.40;;;;;;4952659;28;46796;-59
2023/05/01 15:34:01;;;;;;;;;;;20.00;48.40;;;;;;4967666;28;45029;-59
2023/05/01 15:36:26;;;;;;;;;;;20.00;48.40;;;;;;4940306;28;45434;-60
2023/05/01 15:38:52;;;;;;;;;;;20.00;48.40;;;;;;4948243;28;45795;-59
2023/05/01 15:41:17;;;;;;;;;;;20.00;48.40;;;;;;4942873;28;45285;-58
2023/05/01 15:43:42;;;;;;;;;;;20.00;48.40;;;;;;4964868;28;46318;-58
2023/05/01 15:46:08;;;;;;;;;;;20.00;48.40;;;;;;4955492;28;45088;-57
2023/05/01 15:48:33;;;;;;;;;;;20.00;48.40;;;;;;4947618;28;45898;-58
2023/05/01 15:50:59;;;;;;;;;;;20.00;48.40;;;;;;4940640;28;45940;-57
2023/05/01 15:53:24;;;;;;;;;;;20.00;48.40;;;;;;4970273;28;45566;-58
2023/05/01 15:55:50;;;;;;;;;;;20.00;48.40;;;;;;4964350;28;46354;-58
2023/05/01 15:58:15;;;;;;;;;;;20.00;49.00;;;;;;4967269;28;46134;-58
2023/05/01 16:00:43;;;;;;;;;;;20.00;48.40;;;;;;4942850;28;45210;-58
2023/05/01 16:03:08;;;;;;;;;;;20.00;48.40;;;;;;4936979;28;45352;-55
2023/05/01 16:05:35;;;;;;;;;;;20.00;48.40;;;;;;4949220;28;45247;-59
2023/05/01 16:08:00;;;;;;;;;;;20.00;49.00;;;;;;4933304;28;45773;-58
2023/05/01 16:10:26;;;;;;;;;;;20.10;48.50;;;;;;4942721;28;45557;-58
2023/05/01 16:12:52;;;;;;;;;;;20.00;48.50;;;;;;4921492;28;45568;-60
2023/05/01 16:15:17;;;;;;;;;;;20.10;48.50;;;;;;4929276;28;45308;-58
2023/05/01 16:17:43;;;;;;;;;;;20.00;48.50;;;;;;4930851;28;46791;-59
2023/05/01 16:20:10;;;;;;;;;;;20.00;48.50;;;;;;4928040;28;47079;-60
2023/05/01 16:22:36;;;;;;;;;;;20.00;48.50;;;;;;4950595;28;45272;-58
2023/05/01 16:25:02;;;;;;;;;;;20.10;48.60;;;;;;4950180;28;45298;-60
2023/05/01 16:27:28;;;;;;;;;;;20.00;48.50;;;;;;4931029;28;45599;-57
2023/05/01 16:29:53;;;;;;;;;;;20.10;48.50;;;;;;4949030;28;45348;-59
2023/05/01 16:32:19;;;;;;;;;;;20.10;48.60;;;;;;4926039;28;45420;-58
2023/05/01 16:35:05;;;;;;;;;;;20.00;48.50;;;;;;4919331;28;45552;-60
2023/05/01 16:37:32;;;;;;;;;;;20.10;48.60;;;;;;4933072;28;45573;-59
2023/05/01 16:39:58;;;;;;;;;;;20.10;48.60;;;;;;4949791;28;45658;-59
2023/05/01 16:42:23;;;;;;;;;;;20.10;48.60;;;;;;4935307;28;44992;-59
2023/05/01 16:44:49;;;;;;;;;;;20.10;48.60;;;;;;4955591;28;45620;-59
2023/05/01 16:47:15;;;;;;;;;;;20.10;48.60;;;;;;4943969;28;44720;-59
2023/05/01 16:49:41;;;;;;;;;;;20.10;48.60;;;;;;4953063;28;45404;-60
2023/05/01 16:52:09;;;;;;;;;;;20.10;48.60;;;;;;4952443;28;45263;-58
2023/05/01 16:54:37;;;;;;;;;;;20.10;48.60;;;;;;4941522;28;45237;-59
2023/05/01 16:57:03;;;;;;;;;;;20.10;48.60;;;;;;4950748;28;45923;-58
2023/05/01 16:59:29;;;;;;;;;;;20.10;48.70;;;;;;4940887;28;45943;-57
2023/05/01 17:01:54;;;;;;;;;;;20.00;48.60;;;;;;4932448;28;45665;-59
2023/05/01 17:04:20;;;;;;;;;;;20.00;48.60;;;;;;4954440;28;46478;-58
2023/05/01 17:06:45;;;;;;;;;;;20.10;48.70;;;;;;4930082;28;46181;-57
2023/05/01 17:09:11;;;;;;;;;;;20.10;48.60;;;;;;4938956;28;45985;-58
2023/05/01 17:11:36;;;;;;;;;;;20.10;48.60;;;;;;4958844;28;45848;-59
2023/05/01 17:14:02;;;;;;;;;;;20.10;48.60;;;;;;4942477;28;44775;-58